Terminal Aerodrome Forecast
Issued by NWS Upton, NY

Home | Current Version | Previous Version | Text Only | Print | Product List | Glossary On
Versions: 1 2 3 4 5 6 7 8 9 10 11 12 13 14 15 16 17 18 19 20 21 22 23 24 25 26 27 28 29 30 31 32
929
FTUS41 KOKX 161256 AAA
TAFISP
TAF AMD
KISP 161256Z 1613/1712 33006KT P6SM SCT008
     FM161500 32009KT P6SM SCT050
     FM162200 22007KT P6SM SCT050
     FM170300 34004KT P6SM SCT040
     FM170600 01005KT P6SM SCT040=

USA.gov is the U.S. government's official web portal to all federal, state and local government web resources and services.